• Join FlightAware (Why Join?)
  • Login
  • US Flag 
08:42PM EDT


 

Airport Tracker/Info


-or-


 

Live Flight TrackerFlight Track Log ✈ SKW5453 ✈ 18-May-2013 ✈ KSFO - KMOD

Flight Track Log - Related Links

Times and Time Zones

All times are in EDT time to prevent confusion due to time zone crossing. See the SKW5453 flight status page for this flight to view local times or setup timezone preferences in your user account.

Time Position Orientation Groundspeed Altitude Reporting Facility
EDT Latitude Longitude Course Direction KTS MPH feet Rate Location/Type
06:46PM 37.6500 -122.3833 75° East 153 176 2,000  Level Northern Cal TRACON
06:47PM 37.6667 -122.3333 67° East 188 216 3,700 1,500 Climbing Northern Cal TRACON
06:48PM 37.6758 -122.3122 61° Northeast 183 211 4,300 1,680 Climbing Oakland Center
06:49PM 37.6178 -122.3650 50° Northeast  Level FlightAware Approximate
06:49PM 37.7072 -122.2572 54° Northeast 192 221 6,300  Level Oakland Center
06:50PM 37.7094 -122.2276 50° Northeast  Level FlightAware Approximate
06:50PM 37.7222 -122.1833 76° East 231 266 6,900  Level Oakland Center
06:51PM 37.7441 -122.0558 75° East  Level FlightAware Approximate
06:51PM 37.7125 -122.0750 96° East 260 299 7,000  Level Oakland Center
06:52PM 37.7067 -121.9806 94° East 267 307 7,000  Level Oakland Center
06:53PM 37.6997 -121.8872 95° East 268 308 7,000  Level Oakland Center
06:53PM 37.7000 -121.8333 90° East 265 305 7,000  Level Northern Cal TRACON
06:54PM 37.6833 -121.7500 104° East 262 302 7,000  Level Northern Cal TRACON
06:55PM 37.6833 -121.6500 90° East 264 304 7,000  Level Northern Cal TRACON
06:56PM 37.6833 -121.5667 90° East 265 305 7,100 -420 Climbing Northern Cal TRACON
06:57PM 37.6667 -121.4833 104° East 279 321 6,300 -840 Descending Northern Cal TRACON
06:58PM 37.6667 -121.3667 90° East 287 330 5,500 -720 Descending Northern Cal TRACON
06:59PM 37.6500 -121.2667 102° East 284 327 4,800 -660 Descending Northern Cal TRACON
07:00PM 37.6500 -121.1833 90° East 277 319 4,200 -1,020 Descending Northern Cal TRACON
07:02PM 37.6258 -121.0286 101° East 256 295 2,100 -1,200 Descending Oakland Center
07:02PM 37.6167 -121.0000 112° Southeast 204 235 1,900 -480 Descending Northern Cal TRACON
07:03PM 37.6000 -120.9500 113° Southeast 165 190 1,500 -420 Descending Northern Cal TRACON